Time;durP1;ratioP1;P1;durP2;ratioP2;P2;SDS_P1;SDS_P2;PMS_P1;PMS_P2;Temp;Humidity;BMP_temperature;BMP_pressure;BME280_temperature;BME280_humidity;BME280_pressure;Samples;Min_cycle;Max_cycle;Signal;HPM_P1;HPM_P2
2023/01/20 00:00:49;;;;;;;14.10;10.07;;;;;;;-1.67;100.00;95730.38;10455118;28;20267;-73
2023/01/20 00:05:50;;;;;;;16.83;11.80;;;;;;;-1.83;100.00;95730.59;10454544;28;20227;-72
2023/01/20 00:10:51;;;;;;;19.07;10.70;;;;;;;-1.68;100.00;95736.44;10454947;28;20195;-75
2023/01/20 00:15:51;;;;;;;14.10;9.20;;;;;;;-1.44;100.00;95740.78;10454093;28;20694;-75
2023/01/20 00:20:51;;;;;;;18.57;11.13;;;;;;;-1.42;100.00;95735.53;10454423;28;20656;-76
2023/01/20 00:25:52;;;;;;;17.47;11.67;;;;;;;-1.67;100.00;95755.22;10453688;28;20771;-73
2023/01/20 00:30:52;;;;;;;17.93;11.70;;;;;;;-1.61;100.00;95749.66;10453711;28;20660;-75
2023/01/20 00:35:52;;;;;;;20.00;13.10;;;;;;;-1.66;100.00;95751.72;10453682;28;20706;-74
2023/01/20 00:40:54;;;;;;;22.27;12.63;;;;;;;-1.63;100.00;95759.22;10453055;28;20759;-74
2023/01/20 00:45:54;;;;;;;26.27;13.40;;;;;;;-1.50;100.00;95764.34;10452795;28;20242;-75
2023/01/20 00:50:54;;;;;;;21.13;12.00;;;;;;;-1.38;100.00;95771.19;10451642;28;20238;-75
2023/01/20 00:55:55;;;;;;;23.23;13.90;;;;;;;-1.51;100.00;95788.38;10450737;28;20655;-74
2023/01/20 01:00:57;;;;;;;22.30;13.90;;;;;;;-1.41;100.00;95796.28;10450847;28;20184;-74
2023/01/20 01:06:07;;;;;;;21.77;13.07;;;;;;;-1.46;100.00;95812.00;10451091;28;20224;-75
2023/01/20 01:11:09;;;;;;;22.17;13.80;;;;;;;-1.65;100.00;95815.81;10452157;28;20222;-76
2023/01/20 01:16:11;;;;;;;22.20;11.57;;;;;;;-1.55;100.00;95823.72;10451150;28;20214;-74
2023/01/20 01:21:13;;;;;;;22.73;13.10;;;;;;;-1.67;100.00;95824.53;10451795;28;20647;-74
2023/01/20 01:26:13;;;;;;;17.77;11.33;;;;;;;-1.54;100.00;95829.69;10451046;28;20224;-73
2023/01/20 01:31:15;;;;;;;19.50;13.90;;;;;;;-1.62;100.00;95835.34;10451086;28;20534;-74
2023/01/20 01:36:16;;;;;;;23.03;13.67;;;;;;;-1.67;100.00;95843.38;10449919;28;20557;-75
2023/01/20 01:41:17;;;;;;;25.63;14.73;;;;;;;-1.72;100.00;95842.00;10449203;28;20232;-75
2023/01/20 01:46:17;;;;;;;30.10;15.13;;;;;;;-1.70;100.00;95843.56;10449704;28;20211;-74
2023/01/20 01:51:20;;;;;;;33.17;17.97;;;;;;;-1.90;100.00;95839.75;10450810;28;20271;-75
2023/01/20 01:56:21;;;;;;;35.87;16.37;;;;;;;-1.74;100.00;95841.31;10449034;28;20227;-75
2023/01/20 02:01:22;;;;;;;31.27;17.53;;;;;;;-1.75;100.00;95857.63;10448814;28;20188;-75
2023/01/20 02:06:24;;;;;;;30.70;19.30;;;;;;;-1.84;100.00;95856.47;10448240;28;20220;-75
2023/01/20 02:11:25;;;;;;;32.23;18.37;;;;;;;-1.81;100.00;95852.00;10451764;28;20236;-74
2023/01/20 02:16:55;;;;;;;30.83;18.63;;;;;;;-1.80;100.00;95853.59;10440327;28;20628;-74
2023/01/20 02:22:06;;;;;;;35.83;19.13;;;;;;;-1.89;100.00;95859.34;10457346;28;20278;-75
2023/01/20 02:27:39;;;;;;;38.07;18.53;;;;;;;-1.77;100.00;95867.19;10456975;28;20315;-74
2023/01/20 02:32:42;;;;;;;35.27;16.57;;;;;;;-1.73;100.00;95864.31;10456842;28;20656;-75
2023/01/20 02:37:48;;;;;;;47.27;18.83;;;;;;;-1.79;100.00;95872.44;10456092;28;20238;-75
2023/01/20 02:43:09;;;;;;;39.73;17.30;;;;;;;-1.74;100.00;95866.97;10456381;28;20224;-74
2023/01/20 02:48:26;;;;;;;36.83;18.63;;;;;;;-1.87;100.00;95880.63;10456106;28;20192;-75
2023/01/20 02:53:31;;;;;;;35.73;18.57;;;;;;;-1.80;100.00;95884.41;10456474;28;20188;-74
2023/01/20 02:58:44;;;;;;;37.20;18.07;;;;;;;-1.86;100.00;95889.16;10455757;28;20184;-74
2023/01/20 03:03:46;;;;;;;38.67;19.20;;;;;;;-1.81;100.00;95898.19;10455834;28;20224;-73
2023/01/20 03:08:47;;;;;;;36.30;18.30;;;;;;;-1.64;100.00;95901.38;10453816;28;20199;-73
2023/01/20 03:13:58;;;;;;;29.10;15.83;;;;;;;-1.62;100.00;95910.63;10455578;28;20810;-74
2023/01/20 03:18:59;;;;;;;29.37;16.80;;;;;;;-1.75;100.00;95901.28;10456107;28;20192;-74
2023/01/20 03:24:01;;;;;;;38.93;18.43;;;;;;;-1.91;100.00;95909.97;10454347;28;20580;-73
2023/01/20 03:29:07;;;;;;;32.37;17.70;;;;;;;-1.75;100.00;95914.91;10454742;28;20192;-74
2023/01/20 03:34:11;;;;;;;33.03;17.13;;;;;;;-1.58;100.00;95918.94;10455632;28;20199;-74
2023/01/20 03:39:11;;;;;;;34.93;18.07;;;;;;;-1.41;100.00;95912.69;10453880;28;20242;-74
2023/01/20 03:44:26;;;;;;;30.43;17.50;;;;;;;-1.56;100.00;95916.28;10437533;28;20223;-74
2023/01/20 03:49:35;;;;;;;30.43;18.10;;;;;;;-1.47;100.00;95929.34;10453790;28;20184;-73
2023/01/20 03:54:46;;;;;;;34.93;17.23;;;;;;;-1.69;100.00;95923.97;10453742;28;20271;-74
2023/01/20 03:59:48;;;;;;;34.53;17.07;;;;;;;-1.52;100.00;95936.50;10453650;28;20199;-74
2023/01/20 04:04:48;;;;;;;32.20;17.40;;;;;;;-1.60;100.00;95941.34;10449661;28;20235;-74
2023/01/20 04:09:51;;;;;;;31.97;16.87;;;;;;;-1.49;100.00;95936.31;10448830;28;20229;-74
2023/01/20 04:14:52;;;;;;;28.27;16.40;;;;;;;-1.47;100.00;95943.91;10449111;28;20241;-75
2023/01/20 04:19:52;;;;;;;33.73;17.27;;;;;;;-1.60;100.00;95945.66;10450226;28;20257;-74
2023/01/20 04:24:57;;;;;;;26.97;15.57;;;;;;;-1.27;100.00;95947.75;10450287;28;20216;-74
2023/01/20 04:29:57;;;;;;;22.67;14.63;;;;;;;-1.19;100.00;95958.34;10449197;28;20192;-74
2023/01/20 04:34:57;;;;;;;27.30;15.17;;;;;;;-1.51;100.00;95963.84;10449105;28;20564;-75
2023/01/20 04:39:58;;;;;;;29.60;16.13;;;;;;;-1.45;100.00;95970.34;10448813;28;20574;-74
2023/01/20 04:44:58;;;;;;;29.13;16.63;;;;;;;-1.64;100.00;95975.84;10449454;28;20700;-74
2023/01/20 04:49:59;;;;;;;31.50;17.30;;;;;;;-1.97;100.00;95980.47;10448544;28;20389;-74
2023/01/20 04:54:59;;;;;;;37.67;21.47;;;;;;;-1.80;100.00;95996.56;10448849;28;20208;-74
2023/01/20 04:59:59;;;;;;;31.97;16.43;;;;;;;-1.54;100.00;95994.88;10448888;28;20274;-74
2023/01/20 05:05:00;;;;;;;27.30;16.37;;;;;;;-1.61;100.00;95998.75;10451771;28;20220;-74
2023/01/20 05:10:00;;;;;;;26.63;16.83;;;;;;;-1.65;100.00;95997.34;10451781;28;20657;-75
2023/01/20 05:15:00;;;;;;;30.73;18.83;;;;;;;-1.37;100.00;96003.25;10452363;28;20561;-75
2023/01/20 05:20:01;;;;;;;32.13;18.97;;;;;;;-1.39;100.00;96005.06;10451540;28;20196;-74
2023/01/20 05:25:01;;;;;;;29.83;17.97;;;;;;;-1.49;100.00;96007.41;10451819;28;20214;-75
2023/01/20 05:30:06;;;;;;;37.83;20.37;;;;;;;-1.66;100.00;96021.34;10451904;28;20249;-74
2023/01/20 05:35:07;;;;;;;33.17;19.70;;;;;;;-1.67;100.00;96028.25;10450898;28;20195;-74
2023/01/20 05:40:08;;;;;;;28.57;17.83;;;;;;;-1.71;100.00;96036.25;10451599;28;20235;-75
2023/01/20 05:45:09;;;;;;;31.57;17.07;;;;;;;-1.52;100.00;96051.28;10450742;28;20220;-74
2023/01/20 05:50:10;;;;;;;24.60;15.83;;;;;;;-1.38;100.00;96038.34;10451213;28;20191;-74
2023/01/20 05:55:10;;;;;;;24.27;16.07;;;;;;;-1.58;100.00;96047.34;10451223;28;20190;-74
2023/01/20 06:00:11;;;;;;;24.87;15.40;;;;;;;-1.67;100.00;96047.94;10450958;28;20745;-74
2023/01/20 06:05:11;;;;;;;29.40;15.10;;;;;;;-1.74;100.00;96054.41;10450804;28;20583;-74
2023/01/20 06:10:12;;;;;;;30.27;16.50;;;;;;;-1.73;100.00;96061.16;10450754;28;20258;-75
2023/01/20 06:15:12;;;;;;;30.67;17.90;;;;;;;-1.77;100.00;96064.88;10450878;28;20187;-74
2023/01/20 06:20:12;;;;;;;36.53;19.20;;;;;;;-1.83;100.00;96074.59;10450441;28;20200;-74
2023/01/20 06:25:13;;;;;;;37.90;20.47;;;;;;;-1.84;100.00;96078.09;10450562;28;20227;-74
2023/01/20 06:30:13;;;;;;;37.87;20.47;;;;;;;-1.83;100.00;96084.84;10450220;28;20271;-75
2023/01/20 06:35:14;;;;;;;36.53;19.53;;;;;;;-1.83;100.00;96090.00;10450258;28;20651;-74
2023/01/20 06:40:15;;;;;;;43.03;20.13;;;;;;;-1.76;100.00;96094.75;10448576;28;20243;-74
2023/01/20 06:45:16;;;;;;;44.67;18.27;;;;;;;-1.73;100.00;96097.97;10448751;28;20262;-75
2023/01/20 06:50:16;;;;;;;49.07;20.37;;;;;;;-1.82;100.00;96108.81;10449804;28;20211;-74
2023/01/20 06:55:16;;;;;;;44.47;20.47;;;;;;;-1.79;100.00;96116.31;10449911;28;20656;-74
2023/01/20 07:00:17;;;;;;;51.60;20.10;;;;;;;-1.78;100.00;96127.41;10456540;28;20188;-75
2023/01/20 07:05:18;;;;;;;53.80;21.27;;;;;;;-1.74;100.00;96127.13;10457232;28;20224;-74
2023/01/20 07:10:18;;;;;;;51.80;20.87;;;;;;;-1.73;100.00;96133.06;10457129;28;20198;-74
2023/01/20 07:15:18;;;;;;;49.50;19.83;;;;;;;-1.72;100.00;96145.00;10455139;28;20189;-74
2023/01/20 07:20:19;;;;;;;49.27;20.00;;;;;;;-1.75;100.00;96151.13;10456712;28;20199;-74
2023/01/20 07:25:19;;;;;;;56.40;21.60;;;;;;;-1.75;100.00;96158.84;10456530;28;20220;-73
2023/01/20 07:30:19;;;;;;;50.20;19.83;;;;;;;-1.74;100.00;96170.75;10456060;28;20194;-74
2023/01/20 07:35:20;;;;;;;61.80;20.47;;;;;;;-1.79;100.00;96183.06;10456177;28;20191;-74
2023/01/20 07:40:20;;;;;;;57.27;21.53;;;;;;;-1.73;100.00;96187.84;10455587;28;20235;-74
2023/01/20 07:45:20;;;;;;;62.53;21.40;;;;;;;-1.71;100.00;96195.44;10455583;28;20261;-73
2023/01/20 07:50:21;;;;;;;63.00;22.17;;;;;;;-1.64;100.00;96196.69;10455345;28;20242;-75
2023/01/20 07:55:21;;;;;;;75.10;27.97;;;;;;;-1.63;100.00;96196.59;10455338;28;20281;-74
2023/01/20 08:00:21;;;;;;;57.73;22.57;;;;;;;-1.63;100.00;96206.88;10455093;28;20245;-74
2023/01/20 08:05:22;;;;;;;58.37;22.23;;;;;;;-1.62;100.00;96211.09;10454722;28;20247;-74
2023/01/20 08:10:22;;;;;;;61.67;22.47;;;;;;;-1.60;100.00;96217.91;10453434;28;20245;-74
2023/01/20 08:15:23;;;;;;;56.53;21.63;;;;;;;-1.57;100.00;96223.66;10454493;28;20315;-74
2023/01/20 08:20:23;;;;;;;77.30;24.20;;;;;;;-1.57;100.00;96233.94;10454341;28;20249;-74
2023/01/20 08:25:23;;;;;;;54.23;21.80;;;;;;;-1.48;100.00;96241.06;10453961;28;20251;-74
2023/01/20 08:30:24;;;;;;;61.57;22.60;;;;;;;-1.43;100.00;96240.78;10453935;28;20193;-75
2023/01/20 08:35:25;;;;;;;56.77;20.53;;;;;;;-1.40;100.00;96244.94;10453810;28;20184;-74
2023/01/20 08:40:25;;;;;;;51.60;21.93;;;;;;;-1.50;100.00;96250.63;10453102;28;20566;-74
2023/01/20 08:45:26;;;;;;;53.90;22.27;;;;;;;-1.42;100.00;96260.44;10453252;28;20224;-73
2023/01/20 08:50:26;;;;;;;60.50;22.77;;;;;;;-1.40;100.00;96263.72;10453123;28;20207;-74
2023/01/20 08:55:26;;;;;;;50.17;20.87;;;;;;;-1.31;100.00;96265.72;10453124;28;20275;-74
2023/01/20 09:00:27;;;;;;;52.97;22.60;;;;;;;-1.26;100.00;96275.72;10452645;28;20195;-74
2023/01/20 09:05:27;;;;;;;50.47;20.50;;;;;;;-1.22;100.00;96277.19;10452149;28;20212;-74
2023/01/20 09:10:27;;;;;;;51.80;23.00;;;;;;;-1.05;100.00;96283.03;10452433;28;20282;-74
2023/01/20 09:15:28;;;;;;;50.50;21.47;;;;;;;-0.99;100.00;96275.75;10450659;28;20192;-74
2023/01/20 09:20:29;;;;;;;48.47;21.30;;;;;;;-0.93;100.00;96282.28;10451572;28;20645;-74
2023/01/20 09:25:29;;;;;;;44.47;22.00;;;;;;;-0.65;100.00;96291.63;10451539;28;20580;-75
2023/01/20 09:30:29;;;;;;;44.87;22.47;;;;;;;-0.66;100.00;96286.59;10451602;28;20677;-74
2023/01/20 09:35:30;;;;;;;51.17;22.47;;;;;;;-0.51;100.00;96293.31;10451496;28;20202;-75
2023/01/20 09:46:07;;;;;;;39.77;18.47;;;;;;;-0.33;100.00;96296.47;10449846;28;20624;-74
2023/01/20 09:56:40;;;;;;;33.83;17.20;;;;;;;-0.65;100.00;96294.19;10450827;28;20680;-74
2023/01/20 10:01:50;;;;;;;40.90;18.43;;;;;;;-0.61;100.00;96297.41;10449538;28;20556;-74
2023/01/20 10:06:53;;;;;;;37.93;18.80;;;;;;;-0.60;100.00;96292.19;10449123;28;20264;-74
2023/01/20 10:12:00;;;;;;;46.53;21.77;;;;;;;-0.53;100.00;96289.22;10450941;28;20196;-75
2023/01/20 10:17:16;;;;;;;51.53;21.40;;;;;;;-0.63;100.00;96292.38;10450464;28;20262;-74
2023/01/20 10:22:29;;;;;;;51.40;23.13;;;;;;;-0.73;100.00;96294.69;10449075;28;20184;-74
2023/01/20 10:27:31;;;;;;;51.17;22.00;;;;;;;-0.63;100.00;96301.81;10432290;28;20545;-74
2023/01/20 10:32:41;;;;;;;41.50;20.80;;;;;;;-0.57;100.00;96304.00;10452204;28;20218;-74
2023/01/20 10:37:41;;;;;;;57.47;22.80;;;;;;;-0.57;100.00;96302.28;10456608;28;20295;-75
2023/01/20 10:42:47;;;;;;;46.53;19.27;;;;;;;-0.53;100.00;96294.34;10458099;28;20644;-75
2023/01/20 10:48:09;;;;;;;43.90;20.67;;;;;;;-0.46;100.00;96301.59;10457859;28;20199;-74
2023/01/20 10:53:32;;;;;;;56.93;22.90;;;;;;;-0.57;100.00;96309.16;10456678;28;20277;-74
2023/01/20 10:58:35;;;;;;;51.03;21.67;;;;;;;-0.59;100.00;96313.56;10456136;28;20192;-75
2023/01/20 11:03:41;;;;;;;47.20;20.73;;;;;;;-0.24;100.00;96313.06;10455899;28;20219;-74
2023/01/20 11:08:41;;;;;;;54.33;24.30;;;;;;;-0.14;100.00;96318.44;10455415;28;20279;-74
2023/01/20 11:13:42;;;;;;;62.90;27.00;;;;;;;-0.07;100.00;96317.09;10457029;28;20194;-74
2023/01/20 11:18:54;;;;;;;55.27;25.23;;;;;;;-0.34;100.00;96320.53;10456404;28;20278;-75
2023/01/20 11:23:56;;;;;;;50.73;23.57;;;;;;;-0.21;100.00;96331.69;10456580;28;20688;-73
2023/01/20 11:28:58;;;;;;;49.20;19.70;;;;;;;-0.28;100.00;96333.00;10454851;28;20254;-74
2023/01/20 11:34:01;;;;;;;49.43;21.47;;;;;;;-0.39;100.00;96325.97;10454546;28;20188;-75
2023/01/20 11:39:01;;;;;;;48.53;22.50;;;;;;;-0.28;100.00;96332.19;10455719;28;20239;-75
2023/01/20 11:44:05;;;;;;;57.23;23.03;;;;;;;-0.34;100.00;96335.16;10455719;28;20704;-74
2023/01/20 11:49:20;;;;;;;45.67;22.17;;;;;;;-0.36;100.00;96350.69;10454027;28;20559;-74
2023/01/20 11:54:26;;;;;;;51.53;23.00;;;;;;;-0.49;100.00;96355.81;10455635;28;20684;-73
2023/01/20 11:59:28;;;;;;;50.37;22.17;;;;;;;-0.48;100.00;96367.72;10455234;28;20563;-75
2023/01/20 12:05:03;;;;;;;45.70;18.90;;;;;;;-0.32;100.00;96369.34;10454560;28;20223;-74
2023/01/20 12:10:31;;;;;;;43.53;21.60;;;;;;;-0.42;100.00;96369.91;10454786;28;20192;-75
2023/01/20 12:15:33;;;;;;;46.97;21.33;;;;;;;-0.63;100.00;96374.69;10454238;28;20569;-73
2023/01/20 12:20:44;;;;;;;52.60;22.23;;;;;;;-0.56;100.00;96382.84;10452858;28;20275;-74
2023/01/20 12:25:54;;;;;;;54.50;23.80;;;;;;;-0.69;100.00;96387.91;10452807;28;20310;-74
2023/01/20 12:30:59;;;;;;;47.50;19.93;;;;;;;-0.68;100.00;96396.47;10453816;28;20202;-74
2023/01/20 12:36:09;;;;;;;51.50;20.73;;;;;;;-0.60;100.00;96405.38;10453438;28;20296;-74
2023/01/20 12:41:21;;;;;;;44.10;21.20;;;;;;;-0.61;100.00;96398.56;10453559;28;20662;-73
2023/01/20 12:46:31;;;;;;;56.87;22.10;;;;;;;-0.82;100.00;96407.59;10451620;28;20239;-74
2023/01/20 12:51:51;;;;;;;46.40;22.30;;;;;;;-0.70;100.00;96408.56;10452075;28;20272;-74
2023/01/20 12:57:15;;;;;;;63.17;21.33;;;;;;;-0.85;100.00;96411.19;10451836;28;20210;-74
2023/01/20 13:02:15;;;;;;;52.87;22.30;;;;;;;-0.95;100.00;96415.22;10452645;28;20190;-73
2023/01/20 13:07:32;;;;;;;59.37;23.53;;;;;;;-0.93;100.00;96423.69;10452275;28;20573;-75
2023/01/20 13:12:54;;;;;;;47.33;22.80;;;;;;;-0.63;100.00;96425.28;10451559;28;20525;-74
2023/01/20 13:18:16;;;;;;;49.40;22.10;;;;;;;-0.66;100.00;96425.47;10451620;28;20225;-74
2023/01/20 13:23:28;;;;;;;46.57;21.93;;;;;;;-0.73;100.00;96425.84;10451786;28;20226;-73
2023/01/20 13:28:29;;;;;;;69.90;28.90;;;;;;;-1.08;100.00;96421.09;10450625;28;20254;-73
2023/01/20 13:33:33;;;;;;;66.80;26.03;;;;;;;-1.07;100.00;96427.09;10451730;28;20621;-73
2023/01/20 13:38:38;;;;;;;63.83;25.70;;;;;;;-1.24;100.00;96425.53;10451143;28;20278;-74
2023/01/20 13:43:41;;;;;;;65.33;25.73;;;;;;;-1.33;100.00;96444.03;10450106;28;20208;-74
2023/01/20 13:49:10;;;;;;;74.30;26.73;;;;;;;-1.33;100.00;96451.72;10451185;28;20188;-74
2023/01/20 13:54:27;;;;;;;72.47;26.23;;;;;;;-1.23;100.00;96458.00;10451071;28;20195;-74
2023/01/20 13:59:28;;;;;;;60.70;26.40;;;;;;;-1.35;100.00;96461.28;10450804;28;20214;-74
2023/01/20 14:04:28;;;;;;;55.53;23.53;;;;;;;-1.29;100.00;96468.63;10450484;28;20230;-73
2023/01/20 14:09:28;;;;;;;72.40;27.00;;;;;;;-1.35;100.00;96477.53;10458819;28;20223;-74
2023/01/20 14:14:29;;;;;;;59.70;24.80;;;;;;;-1.35;100.00;96485.22;10459246;28;20195;-75
2023/01/20 14:19:36;;;;;;;61.13;25.20;;;;;;;-1.20;100.00;96487.84;10457685;28;20278;-74
2023/01/20 14:24:42;;;;;;;53.93;25.70;;;;;;;-1.29;100.00;96491.75;10458728;28;20262;-74
2023/01/20 14:29:43;;;;;;;59.63;26.63;;;;;;;-1.29;100.00;96502.88;10458927;28;20195;-74
2023/01/20 14:34:44;;;;;;;60.30;25.03;;;;;;;-1.23;100.00;96499.13;10456836;28;20198;-75
2023/01/20 14:39:48;;;;;;;58.67;25.80;;;;;;;-1.24;100.00;96510.34;10456987;28;20239;-74
2023/01/20 14:44:50;;;;;;;58.47;26.50;;;;;;;-1.33;100.00;96510.84;10457850;28;20220;-74
2023/01/20 14:49:51;;;;;;;55.40;24.30;;;;;;;-1.36;100.00;96523.84;10457882;28;20192;-74
2023/01/20 14:54:55;;;;;;;53.93;25.10;;;;;;;-1.49;100.00;96526.31;10456666;28;20187;-73
2023/01/20 15:00:11;;;;;;;62.47;27.10;;;;;;;-1.63;100.00;96532.22;10456949;28;20227;-74
2023/01/20 15:05:32;;;;;;;58.80;26.20;;;;;;;-1.57;100.00;96544.72;10457124;28;20223;-74
2023/01/20 15:10:32;;;;;;;60.50;25.47;;;;;;;-1.59;100.00;96554.25;10456991;28;20581;-73
2023/01/20 15:15:32;;;;;;;56.67;25.70;;;;;;;-1.59;100.00;96564.53;10456692;28;20184;-72
2023/01/20 15:20:34;;;;;;;56.33;24.63;;;;;;;-1.64;100.00;96574.22;10456147;28;20326;-73
2023/01/20 15:25:35;;;;;;;51.20;23.70;;;;;;;-1.65;100.00;96567.44;10454841;28;20224;-75
2023/01/20 15:30:36;;;;;;;48.37;22.23;;;;;;;-1.73;100.00;96574.72;10456176;28;20213;-73
2023/01/20 15:35:36;;;;;;;45.47;20.23;;;;;;;-1.80;100.00;96582.75;10455984;28;20184;-74
2023/01/20 15:40:38;;;;;;;44.73;21.00;;;;;;;-1.89;100.00;96590.97;10455334;28;20604;-74
2023/01/20 15:45:38;;;;;;;57.23;23.00;;;;;;;-1.90;100.00;96597.03;10455546;28;20684;-74
2023/01/20 15:50:40;;;;;;;50.50;24.20;;;;;;;-1.94;100.00;96597.28;10454487;28;20196;-74
2023/01/20 15:55:46;;;;;;;55.63;22.07;;;;;;;-2.05;100.00;96602.97;10455105;28;20194;-74
2023/01/20 16:00:47;;;;;;;52.37;20.87;;;;;;;-2.09;100.00;96611.75;10455244;28;20199;-75
2023/01/20 16:05:49;;;;;;;45.50;19.73;;;;;;;-2.13;100.00;96620.50;10454716;28;20707;-74
2023/01/20 16:10:49;;;;;;;44.37;18.37;;;;;;;-2.13;100.00;96617.94;10453633;28;20227;-74
2023/01/20 16:15:50;;;;;;;39.80;18.37;;;;;;;-2.15;100.00;96623.97;10454309;28;20192;-75
2023/01/20 16:20:50;;;;;;;37.87;18.90;;;;;;;-2.18;100.00;96629.25;10454667;28;20192;-74
2023/01/20 16:25:50;;;;;;;44.13;20.80;;;;;;;-2.22;100.00;96637.19;10452345;28;20230;-74
2023/01/20 16:30:52;;;;;;;37.47;18.97;;;;;;;-2.28;100.00;96645.22;10453110;28;20253;-75
2023/01/20 16:35:54;;;;;;;48.00;18.37;;;;;;;-2.28;100.00;96647.78;10453538;28;20218;-74
2023/01/20 16:41:00;;;;;;;38.27;17.17;;;;;;;-2.25;100.00;96656.16;10453437;28;20243;-73
2023/01/20 16:46:00;;;;;;;37.63;19.27;;;;;;;-2.27;100.00;96665.66;10451917;28;20977;-74
2023/01/20 16:51:04;;;;;;;42.07;19.47;;;;;;;-2.25;100.00;96669.00;10453493;28;20200;-74
2023/01/20 16:56:04;;;;;;;52.73;27.33;;;;;;;-2.26;100.00;96682.72;10452417;28;20176;-73
2023/01/20 17:01:10;;;;;;;49.57;22.53;;;;;;;-2.25;100.00;96684.41;10453063;28;20191;-73
2023/01/20 17:06:15;;;;;;;50.53;21.50;;;;;;;-2.30;100.00;96688.91;10452150;28;20734;-73
2023/01/20 17:11:27;;;;;;;45.43;18.67;;;;;;;-2.21;100.00;96703.84;10452435;28;20188;-73
2023/01/20 17:16:28;;;;;;;53.37;22.57;;;;;;;-2.25;100.00;96704.94;10451048;28;20180;-74
2023/01/20 17:21:30;;;;;;;50.30;23.93;;;;;;;-2.20;100.00;96707.25;10452013;28;20187;-73
2023/01/20 17:26:31;;;;;;;48.30;20.37;;;;;;;-2.34;100.00;96695.94;10451691;28;20278;-73
2023/01/20 17:31:35;;;;;;;51.20;21.70;;;;;;;-2.39;100.00;96713.31;10450658;28;20230;-73
2023/01/20 17:36:35;;;;;;;47.63;21.40;;;;;;;-2.43;100.00;96710.97;10451310;28;20195;-74
2023/01/20 17:41:35;;;;;;;92.93;37.50;;;;;;;-2.46;100.00;96718.84;10451016;28;20235;-74
2023/01/20 17:46:36;;;;;;;63.57;24.70;;;;;;;-2.43;100.00;96734.06;10450127;28;20216;-74
2023/01/20 17:51:36;;;;;;;65.07;24.23;;;;;;;-2.41;100.00;96733.06;10451400;28;20202;-74
2023/01/20 17:56:37;;;;;;;59.63;26.17;;;;;;;-2.37;100.00;96736.34;10450944;28;20195;-74
2023/01/20 18:01:37;;;;;;;53.37;21.93;;;;;;;-2.44;100.00;96737.53;10450958;28;20196;-73
2023/01/20 18:06:38;;;;;;;50.27;22.10;;;;;;;-2.46;100.00;96742.72;10450177;28;20583;-74
2023/01/20 18:11:38;;;;;;;56.10;23.80;;;;;;;-2.36;100.00;96748.22;10450723;28;20180;-73
2023/01/20 18:16:40;;;;;;;64.73;23.53;;;;;;;-2.42;100.00;96758.78;10450188;28;20709;-75
2023/01/20 18:21:42;;;;;;;51.73;22.23;;;;;;;-2.45;100.00;96753.81;10450470;28;20657;-74
2023/01/20 18:26:42;;;;;;;57.47;23.33;;;;;;;-2.45;100.00;96762.34;10448745;28;20628;-74
2023/01/20 18:31:45;;;;;;;49.73;21.77;;;;;;;-2.42;100.00;96761.34;10450197;28;20283;-75
2023/01/20 18:36:45;;;;;;;52.97;21.97;;;;;;;-2.44;100.00;96763.19;10448147;28;20199;-73
2023/01/20 18:41:46;;;;;;;56.67;22.93;;;;;;;-2.45;100.00;96762.34;10449728;28;20231;-75
2023/01/20 18:46:47;;;;;;;52.30;23.90;;;;;;;-2.42;100.00;96769.06;10449320;28;20231;-75
2023/01/20 18:51:47;;;;;;;61.37;25.80;;;;;;;-2.42;100.00;96781.88;10448579;28;20723;-74
2023/01/20 18:56:47;;;;;;;52.73;23.77;;;;;;;-2.37;100.00;96782.50;10456690;28;20196;-74
2023/01/20 19:01:49;;;;;;;60.23;22.53;;;;;;;-2.52;100.00;96784.88;10456316;28;20188;-74
2023/01/20 19:06:49;;;;;;;52.17;23.10;;;;;;;-2.52;100.00;96779.75;10454160;28;20216;-74
2023/01/20 19:11:49;;;;;;;55.73;21.63;;;;;;;-2.69;100.00;96784.88;10456354;28;20958;-74
2023/01/20 19:16:50;;;;;;;44.90;20.40;;;;;;;-2.64;100.00;96789.78;10455571;28;20750;-74
2023/01/20 19:21:51;;;;;;;58.97;21.60;;;;;;;-2.69;100.00;96790.84;10456048;28;20644;-74
2023/01/20 19:26:51;;;;;;;53.33;22.13;;;;;;;-2.63;100.00;96789.72;10455087;28;20227;-74
2023/01/20 19:31:52;;;;;;;43.50;19.70;;;;;;;-2.61;100.00;96790.47;10455735;28;20190;-74
2023/01/20 19:36:52;;;;;;;59.53;20.10;;;;;;;-2.71;100.00;96784.97;10454716;28;20192;-74
2023/01/20 19:41:52;;;;;;;48.37;18.37;;;;;;;-2.69;100.00;96788.25;10454987;28;20591;-73
2023/01/20 19:46:55;;;;;;;52.20;19.83;;;;;;;-2.84;100.00;96789.00;10454328;28;20704;-74
2023/01/20 19:51:56;;;;;;;57.70;19.87;;;;;;;-2.80;100.00;96787.97;10454365;28;20720;-74
2023/01/20 19:56:56;;;;;;;53.07;17.47;;;;;;;-2.87;100.00;96809.66;10454768;28;20278;-74
2023/01/20 20:01:56;;;;;;;43.33;18.07;;;;;;;-2.87;100.00;96809.66;10453959;28;20682;-74
2023/01/20 20:06:57;;;;;;;44.67;17.90;;;;;;;-2.83;100.00;96806.03;10452573;28;20668;-74
2023/01/20 20:12:03;;;;;;;53.10;22.07;;;;;;;-2.87;100.00;96818.16;10453743;28;20837;-75
2023/01/20 20:17:04;;;;;;;47.53;20.13;;;;;;;-2.76;100.00;96816.84;10452421;28;20188;-74
2023/01/20 20:22:04;;;;;;;42.13;18.60;;;;;;;-2.78;100.00;96839.97;10453825;28;20696;-74
2023/01/20 20:27:05;;;;;;;54.20;18.40;;;;;;;-2.85;100.00;96836.03;10451734;28;20590;-73
2023/01/20 20:32:05;;;;;;;42.87;19.23;;;;;;;-2.83;100.00;96851.34;10453287;28;20204;-74
2023/01/20 20:37:05;;;;;;;51.03;18.43;;;;;;;-2.82;100.00;96847.88;10451236;28;20192;-73
2023/01/20 20:42:06;;;;;;;40.63;18.70;;;;;;;-2.89;100.00;96848.16;10452710;28;20255;-73
2023/01/20 20:47:06;;;;;;;51.67;18.77;;;;;;;-2.92;100.00;96852.63;10451796;28;20299;-73
2023/01/20 20:52:07;;;;;;;52.63;20.60;;;;;;;-2.94;100.00;96857.81;10452755;28;20184;-73
2023/01/20 20:57:07;;;;;;;51.67;19.97;;;;;;;-2.98;100.00;96856.28;10452465;28;20253;-73
2023/01/20 21:02:11;;;;;;;40.90;17.70;;;;;;;-2.96;100.00;96862.16;10451206;28;20253;-73
2023/01/20 21:07:11;;;;;;;52.70;20.60;;;;;;;-3.02;100.00;96865.00;10452288;28;20266;-74
2023/01/20 21:12:12;;;;;;;48.00;20.00;;;;;;;-3.02;100.00;96877.81;10452353;28;20253;-74
2023/01/20 21:17:12;;;;;;;60.80;21.97;;;;;;;-3.02;100.00;96880.38;10449887;28;20677;-74
2023/01/20 21:22:13;;;;;;;54.73;20.77;;;;;;;-2.98;100.00;96884.47;10451865;28;20194;-74
2023/01/20 21:27:14;;;;;;;50.33;21.40;;;;;;;-3.07;100.00;96890.81;10451659;28;20224;-74
2023/01/20 21:32:14;;;;;;;52.10;21.27;;;;;;;-3.09;100.00;96900.31;10451635;28;20642;-74
2023/01/20 21:37:17;;;;;;;55.70;21.93;;;;;;;-3.10;100.00;96900.38;10451494;28;20195;-73
2023/01/20 21:42:17;;;;;;;47.37;20.13;;;;;;;-3.05;100.00;96898.44;10451036;28;20638;-74
2023/01/20 21:47:17;;;;;;;55.17;19.37;;;;;;;-3.12;100.00;96904.75;10450945;28;20315;-73
2023/01/20 21:57:38;;;;;;;42.07;16.67;;;;;;;-3.21;100.00;96902.59;10450903;28;20516;-74
2023/01/20 22:02:42;;;;;;;49.43;17.53;;;;;;;-3.19;100.00;96906.75;10450830;28;20192;-74
2023/01/20 22:07:42;;;;;;;46.57;17.80;;;;;;;-3.26;100.00;96913.88;10450359;28;20298;-74
2023/01/20 22:12:42;;;;;;;40.47;17.87;;;;;;;-3.30;100.00;96917.47;10450443;28;20617;-74
2023/01/20 22:17:44;;;;;;;40.10;17.93;;;;;;;-3.33;100.00;96922.72;10449756;28;20188;-74
2023/01/20 22:22:44;;;;;;;45.50;17.63;;;;;;;-3.29;100.00;96926.00;10450508;28;20192;-74
2023/01/20 22:27:46;;;;;;;51.20;17.57;;;;;;;-3.30;100.00;96934.56;10452118;28;20227;-74
2023/01/20 22:32:47;;;;;;;51.17;18.10;;;;;;;-3.28;100.00;96923.38;10458592;28;20562;-74
2023/01/20 22:37:47;;;;;;;50.30;18.83;;;;;;;-3.33;100.00;96929.56;10456772;28;20204;-74
2023/01/20 22:42:48;;;;;;;44.33;17.13;;;;;;;-3.37;100.00;96920.34;10457850;28;20214;-75
2023/01/20 22:47:48;;;;;;;49.50;18.53;;;;;;;-3.41;100.00;96928.16;10457883;28;20228;-74
2023/01/20 22:52:48;;;;;;;47.43;17.37;;;;;;;-3.32;100.00;96929.50;10458471;28;20191;-73
2023/01/20 22:57:49;;;;;;;47.77;17.63;;;;;;;-3.35;100.00;96932.19;10457183;28;20287;-74